sensor_id;sensor_type;location;lat;lon;timestamp;temperature;humidity
16283;DHT22;8249;48.708;9.030;2022-11-15T00:01:53;7.20;99.90
16283;DHT22;8249;48.708;9.030;2022-11-15T00:04:38;7.20;99.90
16283;DHT22;8249;48.708;9.030;2022-11-15T00:07:24;7.10;99.90
16283;DHT22;8249;48.708;9.030;2022-11-15T00:10:10;7.10;99.90
16283;DHT22;8249;48.708;9.030;2022-11-15T00:12:55;7.00;99.90
16283;DHT22;8249;48.708;9.030;2022-11-15T00:15:42;7.00;99.90
16283;DHT22;8249;48.708;9.030;2022-11-15T00:18:28;7.00;99.90
16283;DHT22;8249;48.708;9.030;2022-11-15T00:21:15;7.00;99.90
16283;DHT22;8249;48.708;9.030;2022-11-15T00:24:01;7.00;99.90
16283;DHT22;8249;48.708;9.030;2022-11-15T00:26:47;7.00;99.90
16283;DHT22;8249;48.708;9.030;2022-11-15T00:29:33;6.90;99.90
16283;DHT22;8249;48.708;9.030;2022-11-15T00:32:20;6.90;99.90
16283;DHT22;8249;48.708;9.030;2022-11-15T00:35:06;6.80;99.90
16283;DHT22;8249;48.708;9.030;2022-11-15T00:37:52;6.80;99.90
16283;DHT22;8249;48.708;9.030;2022-11-15T00:40:38;6.80;99.90
16283;DHT22;8249;48.708;9.030;2022-11-15T00:43:24;6.70;99.90
16283;DHT22;8249;48.708;9.030;2022-11-15T00:46:09;6.70;99.90
16283;DHT22;8249;48.708;9.030;2022-11-15T00:48:57;6.60;99.90
16283;DHT22;8249;48.708;9.030;2022-11-15T00:51:42;6.60;99.90
16283;DHT22;8249;48.708;9.030;2022-11-15T00:54:28;6.60;99.90
16283;DHT22;8249;48.708;9.030;2022-11-15T00:57:13;6.50;99.90
16283;DHT22;8249;48.708;9.030;2022-11-15T00:59:59;6.50;99.90
16283;DHT22;8249;48.708;9.030;2022-11-15T01:02:44;6.50;99.90
16283;DHT22;8249;48.708;9.030;2022-11-15T01:05:31;6.40;99.90
16283;DHT22;8249;48.708;9.030;2022-11-15T01:08:17;6.40;99.90
16283;DHT22;8249;48.708;9.030;2022-11-15T01:11:04;6.30;99.90
16283;DHT22;8249;48.708;9.030;2022-11-15T01:13:50;6.30;99.90
16283;DHT22;8249;48.708;9.030;2022-11-15T01:16:36;6.20;99.90
16283;DHT22;8249;48.708;9.030;2022-11-15T01:19:21;6.20;99.90
16283;DHT22;8249;48.708;9.030;2022-11-15T01:22:08;6.20;99.90
16283;DHT22;8249;48.708;9.030;2022-11-15T01:24:53;6.20;99.90
16283;DHT22;8249;48.708;9.030;2022-11-15T01:27:39;6.20;99.90
16283;DHT22;8249;48.708;9.030;2022-11-15T01:30:24;6.20;99.90
16283;DHT22;8249;48.708;9.030;2022-11-15T01:33:10;6.10;99.90
16283;DHT22;8249;48.708;9.030;2022-11-15T01:35:56;6.10;99.90
16283;DHT22;8249;48.708;9.030;2022-11-15T01:38:43;6.10;99.90
16283;DHT22;8249;48.708;9.030;2022-11-15T01:41:30;6.10;99.90
16283;DHT22;8249;48.708;9.030;2022-11-15T01:44:39;6.20;99.90
16283;DHT22;8249;48.708;9.030;2022-11-15T01:47:28;6.20;99.90
16283;DHT22;8249;48.708;9.030;2022-11-15T01:50:16;6.20;99.90
16283;DHT22;8249;48.708;9.030;2022-11-15T01:53:02;6.20;99.90
16283;DHT22;8249;48.708;9.030;2022-11-15T01:55:50;6.20;99.90
16283;DHT22;8249;48.708;9.030;2022-11-15T01:58:36;6.30;99.90
16283;DHT22;8249;48.708;9.030;2022-11-15T02:01:24;6.30;99.90
16283;DHT22;8249;48.708;9.030;2022-11-15T02:04:13;6.20;99.90
16283;DHT22;8249;48.708;9.030;2022-11-15T02:07:00;6.30;99.90
16283;DHT22;8249;48.708;9.030;2022-11-15T02:09:47;6.30;99.90
16283;DHT22;8249;48.708;9.030;2022-11-15T02:12:34;6.30;99.90
16283;DHT22;8249;48.708;9.030;2022-11-15T02:15:20;6.30;99.90
16283;DHT22;8249;48.708;9.030;2022-11-15T02:18:12;6.30;99.90
16283;DHT22;8249;48.708;9.030;2022-11-15T02:21:11;6.30;99.90
16283;DHT22;8249;48.708;9.030;2022-11-15T02:30:55;6.40;99.90
16283;DHT22;8249;48.708;9.030;2022-11-15T02:33:50;6.40;99.90
16283;DHT22;8249;48.708;9.030;2022-11-15T02:36:42;6.40;99.90
16283;DHT22;8249;48.708;9.030;2022-11-15T02:39:34;6.40;99.90
16283;DHT22;8249;48.708;9.030;2022-11-15T02:42:23;6.50;99.90
16283;DHT22;8249;48.708;9.030;2022-11-15T02:45:30;6.40;99.90
16283;DHT22;8249;48.708;9.030;2022-11-15T02:48:20;6.40;99.90
16283;DHT22;8249;48.708;9.030;2022-11-15T02:51:06;6.40;99.90
16283;DHT22;8249;48.708;9.030;2022-11-15T02:53:52;6.30;99.90
16283;DHT22;8249;48.708;9.030;2022-11-15T02:56:38;6.30;99.90
16283;DHT22;8249;48.708;9.030;2022-11-15T03:06:05;6.30;99.90
16283;DHT22;8249;48.708;9.030;2022-11-15T03:09:03;6.20;99.90
16283;DHT22;8249;48.708;9.030;2022-11-15T03:11:55;6.20;99.90
16283;DHT22;8249;48.708;9.030;2022-11-15T03:14:49;6.20;99.90
16283;DHT22;8249;48.708;9.030;2022-11-15T03:17:38;6.30;99.90
16283;DHT22;8249;48.708;9.030;2022-11-15T03:20:27;6.30;99.90
16283;DHT22;8249;48.708;9.030;2022-11-15T03:23:15;6.30;99.90
16283;DHT22;8249;48.708;9.030;2022-11-15T03:26:01;6.30;99.90
16283;DHT22;8249;48.708;9.030;2022-11-15T03:28:52;6.40;99.90
16283;DHT22;8249;48.708;9.030;2022-11-15T03:31:42;6.50;99.90
16283;DHT22;8249;48.708;9.030;2022-11-15T03:34:34;6.50;99.90
16283;DHT22;8249;48.708;9.030;2022-11-15T03:37:24;6.50;99.90
16283;DHT22;8249;48.708;9.030;2022-11-15T03:40:13;6.50;99.90
16283;DHT22;8249;48.708;9.030;2022-11-15T03:43:02;6.50;99.90
16283;DHT22;8249;48.708;9.030;2022-11-15T03:45:52;6.40;99.90
16283;DHT22;8249;48.708;9.030;2022-11-15T03:48:43;6.50;99.90
16283;DHT22;8249;48.708;9.030;2022-11-15T03:51:30;6.40;99.90
16283;DHT22;8249;48.708;9.030;2022-11-15T03:54:16;6.40;99.90
16283;DHT22;8249;48.708;9.030;2022-11-15T03:57:03;6.50;99.90
16283;DHT22;8249;48.708;9.030;2022-11-15T03:59:48;6.50;99.90
16283;DHT22;8249;48.708;9.030;2022-11-15T04:02:34;6.50;99.90
16283;DHT22;8249;48.708;9.030;2022-11-15T04:05:20;6.50;99.90
16283;DHT22;8249;48.708;9.030;2022-11-15T04:08:05;6.50;99.90
16283;DHT22;8249;48.708;9.030;2022-11-15T04:10:51;6.50;99.90
16283;DHT22;8249;48.708;9.030;2022-11-15T04:13:38;6.50;99.90
16283;DHT22;8249;48.708;9.030;2022-11-15T04:16:23;6.60;99.90
16283;DHT22;8249;48.708;9.030;2022-11-15T04:19:08;6.60;99.90
16283;DHT22;8249;48.708;9.030;2022-11-15T04:22:12;6.60;99.90
16283;DHT22;8249;48.708;9.030;2022-11-15T04:25:15;6.60;99.90
16283;DHT22;8249;48.708;9.030;2022-11-15T04:28:00;6.60;99.90
16283;DHT22;8249;48.708;9.030;2022-11-15T04:30:47;6.60;99.90
16283;DHT22;8249;48.708;9.030;2022-11-15T04:33:33;6.70;99.90
16283;DHT22;8249;48.708;9.030;2022-11-15T04:36:19;6.70;99.90
16283;DHT22;8249;48.708;9.030;2022-11-15T04:39:19;6.70;99.90
16283;DHT22;8249;48.708;9.030;2022-11-15T04:42:04;6.70;99.90
16283;DHT22;8249;48.708;9.030;2022-11-15T04:44:50;6.70;99.90
16283;DHT22;8249;48.708;9.030;2022-11-15T04:47:37;6.80;99.90
16283;DHT22;8249;48.708;9.030;2022-11-15T04:50:22;6.80;99.90
16283;DHT22;8249;48.708;9.030;2022-11-15T04:53:08;6.70;99.90
16283;DHT22;8249;48.708;9.030;2022-11-15T04:55:53;6.70;99.90
16283;DHT22;8249;48.708;9.030;2022-11-15T04:58:39;6.70;99.90
16283;DHT22;8249;48.708;9.030;2022-11-15T05:01:25;6.70;99.90
16283;DHT22;8249;48.708;9.030;2022-11-15T05:04:12;6.60;99.90
16283;DHT22;8249;48.708;9.030;2022-11-15T05:07:05;6.60;99.90
16283;DHT22;8249;48.708;9.030;2022-11-15T05:09:51;6.60;99.90
16283;DHT22;8249;48.708;9.030;2022-11-15T05:12:36;6.50;99.90
16283;DHT22;8249;48.708;9.030;2022-11-15T05:15:22;6.50;99.90
16283;DHT22;8249;48.708;9.030;2022-11-15T05:18:07;6.50;99.90
16283;DHT22;8249;48.708;9.030;2022-11-15T05:20:54;6.50;99.90
16283;DHT22;8249;48.708;9.030;2022-11-15T05:23:40;6.50;99.90
16283;DHT22;8249;48.708;9.030;2022-11-15T05:26:26;6.50;99.90
16283;DHT22;8249;48.708;9.030;2022-11-15T05:29:12;6.40;99.90
16283;DHT22;8249;48.708;9.030;2022-11-15T05:31:57;6.50;99.90
16283;DHT22;8249;48.708;9.030;2022-11-15T05:34:43;6.40;99.90
16283;DHT22;8249;48.708;9.030;2022-11-15T05:37:30;6.40;99.90
16283;DHT22;8249;48.708;9.030;2022-11-15T05:40:17;6.50;99.90
16283;DHT22;8249;48.708;9.030;2022-11-15T05:43:04;6.40;99.90
16283;DHT22;8249;48.708;9.030;2022-11-15T05:45:49;6.40;99.90
16283;DHT22;8249;48.708;9.030;2022-11-15T05:48:36;6.40;99.90
16283;DHT22;8249;48.708;9.030;2022-11-15T05:51:23;6.40;99.90
16283;DHT22;8249;48.708;9.030;2022-11-15T05:54:11;6.30;99.90
16283;DHT22;8249;48.708;9.030;2022-11-15T05:56:56;6.40;99.90
16283;DHT22;8249;48.708;9.030;2022-11-15T05:59:42;6.30;99.90
16283;DHT22;8249;48.708;9.030;2022-11-15T06:02:28;6.30;99.90
16283;DHT22;8249;48.708;9.030;2022-11-15T06:05:14;6.30;99.90
16283;DHT22;8249;48.708;9.030;2022-11-15T06:07:59;6.40;99.90
16283;DHT22;8249;48.708;9.030;2022-11-15T06:10:46;6.50;99.90
16283;DHT22;8249;48.708;9.030;2022-11-15T06:13:32;6.50;99.90
16283;DHT22;8249;48.708;9.030;2022-11-15T06:16:17;6.50;99.90
16283;DHT22;8249;48.708;9.030;2022-11-15T06:19:03;6.50;99.90
16283;DHT22;8249;48.708;9.030;2022-11-15T06:21:48;6.60;99.90
16283;DHT22;8249;48.708;9.030;2022-11-15T06:24:34;6.50;99.90
16283;DHT22;8249;48.708;9.030;2022-11-15T06:27:21;6.50;99.90
16283;DHT22;8249;48.708;9.030;2022-11-15T06:30:07;6.50;99.90
16283;DHT22;8249;48.708;9.030;2022-11-15T06:32:58;6.50;99.90
16283;DHT22;8249;48.708;9.030;2022-11-15T06:35:44;6.50;99.90
16283;DHT22;8249;48.708;9.030;2022-11-15T06:38:30;6.50;99.90
16283;DHT22;8249;48.708;9.030;2022-11-15T06:41:15;6.50;99.90
16283;DHT22;8249;48.708;9.030;2022-11-15T06:44:03;6.50;99.90
16283;DHT22;8249;48.708;9.030;2022-11-15T06:46:48;6.60;99.90
16283;DHT22;8249;48.708;9.030;2022-11-15T06:49:34;6.60;99.90
16283;DHT22;8249;48.708;9.030;2022-11-15T06:52:20;6.70;99.90
16283;DHT22;8249;48.708;9.030;2022-11-15T06:55:07;6.80;99.90
16283;DHT22;8249;48.708;9.030;2022-11-15T06:57:53;6.80;99.90
16283;DHT22;8249;48.708;9.030;2022-11-15T07:00:40;6.90;99.90
16283;DHT22;8249;48.708;9.030;2022-11-15T07:03:26;6.90;99.90
16283;DHT22;8249;48.708;9.030;2022-11-15T07:06:12;7.00;99.90
16283;DHT22;8249;48.708;9.030;2022-11-15T07:08:58;7.00;99.90
16283;DHT22;8249;48.708;9.030;2022-11-15T07:11:44;7.10;99.90
16283;DHT22;8249;48.708;9.030;2022-11-15T07:14:29;7.10;99.90
16283;DHT22;8249;48.708;9.030;2022-11-15T07:17:16;7.20;99.90
16283;DHT22;8249;48.708;9.030;2022-11-15T07:20:02;7.30;99.90
16283;DHT22;8249;48.708;9.030;2022-11-15T07:22:48;7.40;99.90
16283;DHT22;8249;48.708;9.030;2022-11-15T07:25:33;7.50;99.90
16283;DHT22;8249;48.708;9.030;2022-11-15T07:28:19;7.70;99.90
16283;DHT22;8249;48.708;9.030;2022-11-15T07:31:05;7.90;99.90
16283;DHT22;8249;48.708;9.030;2022-11-15T07:33:52;8.20;99.90
16283;DHT22;8249;48.708;9.030;2022-11-15T07:36:38;8.40;99.90
16283;DHT22;8249;48.708;9.030;2022-11-15T07:39:23;8.70;99.90
16283;DHT22;8249;48.708;9.030;2022-11-15T07:42:09;9.00;99.90
16283;DHT22;8249;48.708;9.030;2022-11-15T07:45:12;9.20;99.90
16283;DHT22;8249;48.708;9.030;2022-11-15T07:47:58;9.50;99.90
16283;DHT22;8249;48.708;9.030;2022-11-15T07:50:45;9.70;99.90
16283;DHT22;8249;48.708;9.030;2022-11-15T07:53:31;9.90;99.90
16283;DHT22;8249;48.708;9.030;2022-11-15T07:56:17;10.10;99.90
16283;DHT22;8249;48.708;9.030;2022-11-15T07:59:03;10.30;99.90
16283;DHT22;8249;48.708;9.030;2022-11-15T08:01:48;10.40;99.90
16283;DHT22;8249;48.708;9.030;2022-11-15T08:04:34;10.50;99.90
16283;DHT22;8249;48.708;9.030;2022-11-15T08:07:21;10.60;99.90
16283;DHT22;8249;48.708;9.030;2022-11-15T08:10:07;10.80;99.90
16283;DHT22;8249;48.708;9.030;2022-11-15T08:12:57;10.90;99.90
16283;DHT22;8249;48.708;9.030;2022-11-15T08:15:44;11.30;99.90
16283;DHT22;8249;48.708;9.030;2022-11-15T08:18:29;11.70;99.90
16283;DHT22;8249;48.708;9.030;2022-11-15T08:21:18;12.10;99.90
16283;DHT22;8249;48.708;9.030;2022-11-15T08:24:07;12.50;99.90
16283;DHT22;8249;48.708;9.030;2022-11-15T08:26:54;12.90;99.90
16283;DHT22;8249;48.708;9.030;2022-11-15T08:29:39;13.30;99.90
16283;DHT22;8249;48.708;9.030;2022-11-15T08:32:25;13.90;99.90
16283;DHT22;8249;48.708;9.030;2022-11-15T08:35:11;14.70;99.90
16283;DHT22;8249;48.708;9.030;2022-11-15T08:37:56;15.30;99.90
16283;DHT22;8249;48.708;9.030;2022-11-15T08:40:43;15.80;99.90
16283;DHT22;8249;48.708;9.030;2022-11-15T08:43:29;16.50;99.90
16283;DHT22;8249;48.708;9.030;2022-11-15T08:46:15;17.20;99.90
16283;DHT22;8249;48.708;9.030;2022-11-15T08:49:02;17.30;99.90
16283;DHT22;8249;48.708;9.030;2022-11-15T08:51:48;17.10;99.90
16283;DHT22;8249;48.708;9.030;2022-11-15T08:54:33;17.30;99.90
16283;DHT22;8249;48.708;9.030;2022-11-15T08:57:20;16.90;99.90
16283;DHT22;8249;48.708;9.030;2022-11-15T09:00:07;16.70;99.90
16283;DHT22;8249;48.708;9.030;2022-11-15T09:02:52;16.50;99.90
16283;DHT22;8249;48.708;9.030;2022-11-15T09:05:38;16.30;99.90
16283;DHT22;8249;48.708;9.030;2022-11-15T09:08:23;16.60;99.90
16283;DHT22;8249;48.708;9.030;2022-11-15T09:11:10;16.40;99.90
16283;DHT22;8249;48.708;9.030;2022-11-15T09:13:57;16.50;99.90
16283;DHT22;8249;48.708;9.030;2022-11-15T09:16:43;16.50;99.90
16283;DHT22;8249;48.708;9.030;2022-11-15T09:19:28;16.10;99.90
16283;DHT22;8249;48.708;9.030;2022-11-15T09:22:14;16.00;99.90
16283;DHT22;8249;48.708;9.030;2022-11-15T09:25:00;15.70;99.90
16283;DHT22;8249;48.708;9.030;2022-11-15T09:27:46;15.80;99.90
16283;DHT22;8249;48.708;9.030;2022-11-15T09:30:33;16.10;99.90
16283;DHT22;8249;48.708;9.030;2022-11-15T09:33:18;16.40;99.90
16283;DHT22;8249;48.708;9.030;2022-11-15T09:36:06;16.30;99.90
16283;DHT22;8249;48.708;9.030;2022-11-15T09:38:52;16.20;99.90
16283;DHT22;8249;48.708;9.030;2022-11-15T09:41:59;16.10;99.90
16283;DHT22;8249;48.708;9.030;2022-11-15T09:45:04;15.80;99.90
16283;DHT22;8249;48.708;9.030;2022-11-15T09:48:24;15.90;99.90
16283;DHT22;8249;48.708;9.030;2022-11-15T09:51:21;15.80;99.90
16283;DHT22;8249;48.708;9.030;2022-11-15T09:53:57;15.60;99.90
16283;DHT22;8249;48.708;9.030;2022-11-15T09:56:27;15.20;99.90
16283;DHT22;8249;48.708;9.030;2022-11-15T09:59:03;14.90;99.90
16283;DHT22;8249;48.708;9.030;2022-11-15T10:01:38;14.80;99.90
16283;DHT22;8249;48.708;9.030;2022-11-15T10:04:08;14.70;99.90
16283;DHT22;8249;48.708;9.030;2022-11-15T10:06:40;14.50;99.90
16283;DHT22;8249;48.708;9.030;2022-11-15T10:09:15;14.30;99.90
16283;DHT22;8249;48.708;9.030;2022-11-15T10:11:42;14.10;99.90
16283;DHT22;8249;48.708;9.030;2022-11-15T10:14:15;14.20;99.90
16283;DHT22;8249;48.708;9.030;2022-11-15T10:17:05;14.20;99.90
16283;DHT22;8249;48.708;9.030;2022-11-15T10:19:40;14.20;99.90
16283;DHT22;8249;48.708;9.030;2022-11-15T10:22:19;14.10;99.90
16283;DHT22;8249;48.708;9.030;2022-11-15T10:24:48;14.20;99.90
16283;DHT22;8249;48.708;9.030;2022-11-15T10:27:18;14.00;99.90
16283;DHT22;8249;48.708;9.030;2022-11-15T10:29:46;14.10;99.90
16283;DHT22;8249;48.708;9.030;2022-11-15T10:32:15;14.10;99.90
16283;DHT22;8249;48.708;9.030;2022-11-15T10:34:45;14.10;99.90
16283;DHT22;8249;48.708;9.030;2022-11-15T10:37:12;14.00;99.90
16283;DHT22;8249;48.708;9.030;2022-11-15T10:39:39;14.00;99.90
16283;DHT22;8249;48.708;9.030;2022-11-15T10:42:17;13.90;99.90
16283;DHT22;8249;48.708;9.030;2022-11-15T10:44:45;13.90;99.90
16283;DHT22;8249;48.708;9.030;2022-11-15T10:47:26;13.90;99.90
16283;DHT22;8249;48.708;9.030;2022-11-15T10:50:01;13.90;99.90
16283;DHT22;8249;48.708;9.030;2022-11-15T10:52:30;13.80;99.90
16283;DHT22;8249;48.708;9.030;2022-11-15T10:55:01;13.70;99.90
16283;DHT22;8249;48.708;9.030;2022-11-15T10:57:33;13.70;99.90
16283;DHT22;8249;48.708;9.030;2022-11-15T11:00:06;13.70;99.90
16283;DHT22;8249;48.708;9.030;2022-11-15T11:02:35;13.60;99.90
16283;DHT22;8249;48.708;9.030;2022-11-15T11:05:07;13.50;99.90
16283;DHT22;8249;48.708;9.030;2022-11-15T11:07:56;13.50;99.90
16283;DHT22;8249;48.708;9.030;2022-11-15T11:10:23;13.60;99.90
16283;DHT22;8249;48.708;9.030;2022-11-15T11:12:50;13.70;99.90
16283;DHT22;8249;48.708;9.030;2022-11-15T11:15:17;13.80;99.90
16283;DHT22;8249;48.708;9.030;2022-11-15T11:18:01;13.80;99.90
16283;DHT22;8249;48.708;9.030;2022-11-15T11:20:40;13.90;99.90
16283;DHT22;8249;48.708;9.030;2022-11-15T11:23:21;13.90;99.90
16283;DHT22;8249;48.708;9.030;2022-11-15T11:26:09;14.00;99.90
16283;DHT22;8249;48.708;9.030;2022-11-15T11:28:48;14.10;99.90
16283;DHT22;8249;48.708;9.030;2022-11-15T11:31:25;14.10;99.90
16283;DHT22;8249;48.708;9.030;2022-11-15T11:34:02;14.20;99.90
16283;DHT22;8249;48.708;9.030;2022-11-15T11:36:40;14.20;99.90
16283;DHT22;8249;48.708;9.030;2022-11-15T11:39:21;14.40;99.90
16283;DHT22;8249;48.708;9.030;2022-11-15T11:41:57;14.40;99.90
16283;DHT22;8249;48.708;9.030;2022-11-15T11:44:36;14.50;99.90
16283;DHT22;8249;48.708;9.030;2022-11-15T11:47:09;14.60;99.90
16283;DHT22;8249;48.708;9.030;2022-11-15T11:49:42;14.70;99.90
16283;DHT22;8249;48.708;9.030;2022-11-15T11:52:14;14.90;99.90
16283;DHT22;8249;48.708;9.030;2022-11-15T11:54:50;15.00;99.90
16283;DHT22;8249;48.708;9.030;2022-11-15T11:57:26;15.00;99.90
16283;DHT22;8249;48.708;9.030;2022-11-15T12:00:00;15.00;99.90
16283;DHT22;8249;48.708;9.030;2022-11-15T12:02:40;15.20;99.90
16283;DHT22;8249;48.708;9.030;2022-11-15T12:05:13;15.20;99.90
16283;DHT22;8249;48.708;9.030;2022-11-15T12:07:46;15.10;99.90
16283;DHT22;8249;48.708;9.030;2022-11-15T12:10:20;14.90;99.90
16283;DHT22;8249;48.708;9.030;2022-11-15T12:12:55;14.80;99.90
16283;DHT22;8249;48.708;9.030;2022-11-15T12:15:26;14.70;99.90
16283;DHT22;8249;48.708;9.030;2022-11-15T12:17:55;14.70;99.90
16283;DHT22;8249;48.708;9.030;2022-11-15T12:20:25;14.60;99.90
16283;DHT22;8249;48.708;9.030;2022-11-15T12:22:58;14.50;99.90
16283;DHT22;8249;48.708;9.030;2022-11-15T12:25:30;14.30;99.90
16283;DHT22;8249;48.708;9.030;2022-11-15T12:28:03;14.20;99.90
16283;DHT22;8249;48.708;9.030;2022-11-15T12:30:44;14.20;99.90
16283;DHT22;8249;48.708;9.030;2022-11-15T12:33:34;14.10;99.90
16283;DHT22;8249;48.708;9.030;2022-11-15T12:36:03;14.10;99.90
16283;DHT22;8249;48.708;9.030;2022-11-15T12:38:51;14.10;99.90
16283;DHT22;8249;48.708;9.030;2022-11-15T12:41:19;14.10;99.90
16283;DHT22;8249;48.708;9.030;2022-11-15T12:43:48;14.10;99.90
16283;DHT22;8249;48.708;9.030;2022-11-15T12:49:10;14.10;99.90
16283;DHT22;8249;48.708;9.030;2022-11-15T12:52:05;14.10;99.90
16283;DHT22;8249;48.708;9.030;2022-11-15T12:54:58;14.10;99.90
16283;DHT22;8249;48.708;9.030;2022-11-15T12:57:43;14.10;99.90
16283;DHT22;8249;48.708;9.030;2022-11-15T13:03:24;14.10;99.90
16283;DHT22;8249;48.708;9.030;2022-11-15T13:06:02;14.10;99.90
16283;DHT22;8249;48.708;9.030;2022-11-15T13:08:50;14.10;99.90
16283;DHT22;8249;48.708;9.030;2022-11-15T13:11:47;14.10;99.90
16283;DHT22;8249;48.708;9.030;2022-11-15T13:14:43;14.00;99.90
16283;DHT22;8249;48.708;9.030;2022-11-15T13:17:31;14.00;99.90
16283;DHT22;8249;48.708;9.030;2022-11-15T13:20:19;14.00;99.90
16283;DHT22;8249;48.708;9.030;2022-11-15T13:22:49;14.00;99.90
16283;DHT22;8249;48.708;9.030;2022-11-15T13:28:32;13.90;99.90
16283;DHT22;8249;48.708;9.030;2022-11-15T13:33:46;13.90;99.90
16283;DHT22;8249;48.708;9.030;2022-11-15T13:36:15;13.90;99.90
16283;DHT22;8249;48.708;9.030;2022-11-15T13:38:54;13.90;99.90
16283;DHT22;8249;48.708;9.030;2022-11-15T13:41:23;13.90;99.90
16283;DHT22;8249;48.708;9.030;2022-11-15T13:43:54;13.80;99.90
16283;DHT22;8249;48.708;9.030;2022-11-15T13:46:22;13.80;99.90
16283;DHT22;8249;48.708;9.030;2022-11-15T13:48:55;13.80;99.90
16283;DHT22;8249;48.708;9.030;2022-11-15T13:51:26;13.80;99.90
16283;DHT22;8249;48.708;9.030;2022-11-15T13:53:57;13.70;99.90
16283;DHT22;8249;48.708;9.030;2022-11-15T13:56:26;13.70;99.90
16283;DHT22;8249;48.708;9.030;2022-11-15T13:58:55;13.60;99.90
16283;DHT22;8249;48.708;9.030;2022-11-15T14:01:23;13.60;99.90
16283;DHT22;8249;48.708;9.030;2022-11-15T14:03:55;13.60;99.90
16283;DHT22;8249;48.708;9.030;2022-11-15T14:06:25;13.60;99.90
16283;DHT22;8249;48.708;9.030;2022-11-15T14:09:02;13.60;99.90
16283;DHT22;8249;48.708;9.030;2022-11-15T14:11:30;13.70;99.90
16283;DHT22;8249;48.708;9.030;2022-11-15T14:14:11;14.30;99.90
16283;DHT22;8249;48.708;9.030;2022-11-15T14:16:42;15.00;99.90
16283;DHT22;8249;48.708;9.030;2022-11-15T14:19:11;15.10;99.90
16283;DHT22;8249;48.708;9.030;2022-11-15T14:22:13;15.00;99.90
16283;DHT22;8249;48.708;9.030;2022-11-15T14:24:42;14.90;99.90
16283;DHT22;8249;48.708;9.030;2022-11-15T14:27:20;14.70;99.90
16283;DHT22;8249;48.708;9.030;2022-11-15T14:29:49;14.50;99.90
16283;DHT22;8249;48.708;9.030;2022-11-15T14:32:17;14.30;99.90
16283;DHT22;8249;48.708;9.030;2022-11-15T14:34:45;14.10;99.90
16283;DHT22;8249;48.708;9.030;2022-11-15T14:37:20;14.00;99.90
16283;DHT22;8249;48.708;9.030;2022-11-15T14:39:48;13.90;99.90
16283;DHT22;8249;48.708;9.030;2022-11-15T14:42:16;13.70;99.90
16283;DHT22;8249;48.708;9.030;2022-11-15T14:44:43;13.60;99.90
16283;DHT22;8249;48.708;9.030;2022-11-15T14:47:11;13.50;99.90
16283;DHT22;8249;48.708;9.030;2022-11-15T14:49:38;13.40;99.90
16283;DHT22;8249;48.708;9.030;2022-11-15T14:52:19;13.40;99.90
16283;DHT22;8249;48.708;9.030;2022-11-15T14:54:48;13.40;99.90
16283;DHT22;8249;48.708;9.030;2022-11-15T14:57:15;13.30;99.90
16283;DHT22;8249;48.708;9.030;2022-11-15T14:59:42;13.20;99.90
16283;DHT22;8249;48.708;9.030;2022-11-15T15:02:16;13.20;99.90
16283;DHT22;8249;48.708;9.030;2022-11-15T15:04:44;13.10;99.90
16283;DHT22;8249;48.708;9.030;2022-11-15T15:07:12;13.10;99.90
16283;DHT22;8249;48.708;9.030;2022-11-15T15:09:39;13.00;99.90
16283;DHT22;8249;48.708;9.030;2022-11-15T15:12:14;13.00;99.90
16283;DHT22;8249;48.708;9.030;2022-11-15T15:14:41;12.90;99.90
16283;DHT22;8249;48.708;9.030;2022-11-15T15:17:08;12.90;99.90
16283;DHT22;8249;48.708;9.030;2022-11-15T15:19:37;12.80;99.90
16283;DHT22;8249;48.708;9.030;2022-11-15T15:22:04;12.80;99.90
16283;DHT22;8249;48.708;9.030;2022-11-15T15:24:31;12.70;99.90
16283;DHT22;8249;48.708;9.030;2022-11-15T15:26:58;12.70;99.90
16283;DHT22;8249;48.708;9.030;2022-11-15T15:29:25;12.70;99.90
16283;DHT22;8249;48.708;9.030;2022-11-15T15:31:52;12.60;99.90
16283;DHT22;8249;48.708;9.030;2022-11-15T15:34:19;12.60;99.90
16283;DHT22;8249;48.708;9.030;2022-11-15T15:36:48;12.50;99.90
16283;DHT22;8249;48.708;9.030;2022-11-15T15:39:15;12.50;99.90
16283;DHT22;8249;48.708;9.030;2022-11-15T15:41:42;12.50;99.90
16283;DHT22;8249;48.708;9.030;2022-11-15T15:44:08;12.40;99.90
16283;DHT22;8249;48.708;9.030;2022-11-15T15:46:35;12.40;99.90
16283;DHT22;8249;48.708;9.030;2022-11-15T15:49:04;12.30;99.90
16283;DHT22;8249;48.708;9.030;2022-11-15T15:51:31;12.30;99.90
16283;DHT22;8249;48.708;9.030;2022-11-15T15:54:00;12.30;99.90
16283;DHT22;8249;48.708;9.030;2022-11-15T15:56:27;12.20;99.90
16283;DHT22;8249;48.708;9.030;2022-11-15T15:58:54;12.30;99.90
16283;DHT22;8249;48.708;9.030;2022-11-15T16:01:21;12.20;99.90
16283;DHT22;8249;48.708;9.030;2022-11-15T16:03:48;12.20;99.90
16283;DHT22;8249;48.708;9.030;2022-11-15T16:06:41;12.20;99.90
16283;DHT22;8249;48.708;9.030;2022-11-15T16:09:13;12.20;99.90
16283;DHT22;8249;48.708;9.030;2022-11-15T16:11:41;12.20;99.90
16283;DHT22;8249;48.708;9.030;2022-11-15T16:14:08;12.20;99.90
16283;DHT22;8249;48.708;9.030;2022-11-15T16:16:36;12.20;99.90
16283;DHT22;8249;48.708;9.030;2022-11-15T16:19:04;12.20;99.90
16283;DHT22;8249;48.708;9.030;2022-11-15T16:21:31;12.10;99.90
16283;DHT22;8249;48.708;9.030;2022-11-15T16:23:58;12.20;99.90
16283;DHT22;8249;48.708;9.030;2022-11-15T16:26:28;12.10;99.90
16283;DHT22;8249;48.708;9.030;2022-11-15T16:28:56;12.10;99.90
16283;DHT22;8249;48.708;9.030;2022-11-15T16:31:24;12.10;99.90
16283;DHT22;8249;48.708;9.030;2022-11-15T16:33:51;12.00;99.90
16283;DHT22;8249;48.708;9.030;2022-11-15T16:36:20;11.90;99.90
16283;DHT22;8249;48.708;9.030;2022-11-15T16:38:48;11.90;99.90
16283;DHT22;8249;48.708;9.030;2022-11-15T16:41:15;11.80;99.90
16283;DHT22;8249;48.708;9.030;2022-11-15T16:43:45;11.80;99.90
16283;DHT22;8249;48.708;9.030;2022-11-15T16:46:17;11.70;99.90
16283;DHT22;8249;48.708;9.030;2022-11-15T16:48:44;11.70;99.90
16283;DHT22;8249;48.708;9.030;2022-11-15T16:51:12;11.60;99.90
16283;DHT22;8249;48.708;9.030;2022-11-15T16:53:39;11.60;99.90
16283;DHT22;8249;48.708;9.030;2022-11-15T16:56:17;11.60;99.90
16283;DHT22;8249;48.708;9.030;2022-11-15T16:58:46;11.50;99.90
16283;DHT22;8249;48.708;9.030;2022-11-15T17:01:17;11.50;99.90
16283;DHT22;8249;48.708;9.030;2022-11-15T17:03:44;11.50;99.90
16283;DHT22;8249;48.708;9.030;2022-11-15T17:06:12;11.40;99.90
16283;DHT22;8249;48.708;9.030;2022-11-15T17:08:40;11.40;99.90
16283;DHT22;8249;48.708;9.030;2022-11-15T17:11:07;11.40;99.90
16283;DHT22;8249;48.708;9.030;2022-11-15T17:13:34;11.50;99.90
16283;DHT22;8249;48.708;9.030;2022-11-15T17:16:09;11.60;99.90
16283;DHT22;8249;48.708;9.030;2022-11-15T17:18:37;11.70;99.90
16283;DHT22;8249;48.708;9.030;2022-11-15T17:21:05;11.70;99.90
16283;DHT22;8249;48.708;9.030;2022-11-15T17:23:33;11.70;99.90
16283;DHT22;8249;48.708;9.030;2022-11-15T17:26:04;11.70;99.90
16283;DHT22;8249;48.708;9.030;2022-11-15T17:28:33;11.70;99.90
16283;DHT22;8249;48.708;9.030;2022-11-15T17:31:00;11.80;99.90
16283;DHT22;8249;48.708;9.030;2022-11-15T17:33:30;11.80;99.90
16283;DHT22;8249;48.708;9.030;2022-11-15T17:35:59;11.90;99.90
16283;DHT22;8249;48.708;9.030;2022-11-15T17:38:27;11.80;99.90
16283;DHT22;8249;48.708;9.030;2022-11-15T17:41:01;11.80;99.90
16283;DHT22;8249;48.708;9.030;2022-11-15T17:43:29;11.90;99.90